sensor_id;sensor_type;location;lat;lon;timestamp;temperature;humidity
16247;DHT22;8231;50.866;7.944;2022-08-03T00:00:33;16.50;99.90
16247;DHT22;8231;50.866;7.944;2022-08-03T00:03:01;16.50;99.90
16247;DHT22;8231;50.866;7.944;2022-08-03T00:05:29;16.40;99.90
16247;DHT22;8231;50.866;7.944;2022-08-03T00:07:59;16.40;99.90
16247;DHT22;8231;50.866;7.944;2022-08-03T00:10:29;16.40;99.90
16247;DHT22;8231;50.866;7.944;2022-08-03T00:12:57;16.40;99.90
16247;DHT22;8231;50.866;7.944;2022-08-03T00:15:25;16.30;99.90
16247;DHT22;8231;50.866;7.944;2022-08-03T00:17:53;16.30;99.90
16247;DHT22;8231;50.866;7.944;2022-08-03T00:20:22;16.30;99.90
16247;DHT22;8231;50.866;7.944;2022-08-03T00:22:50;16.40;99.90
16247;DHT22;8231;50.866;7.944;2022-08-03T00:25:18;16.30;99.90
16247;DHT22;8231;50.866;7.944;2022-08-03T00:27:48;16.30;99.90
16247;DHT22;8231;50.866;7.944;2022-08-03T00:30:16;16.20;99.90
16247;DHT22;8231;50.866;7.944;2022-08-03T00:32:45;16.20;99.90
16247;DHT22;8231;50.866;7.944;2022-08-03T00:35:14;16.20;99.90
16247;DHT22;8231;50.866;7.944;2022-08-03T00:38:02;16.10;99.90
16247;DHT22;8231;50.866;7.944;2022-08-03T00:40:30;16.10;99.90
16247;DHT22;8231;50.866;7.944;2022-08-03T00:43:01;16.10;99.90
16247;DHT22;8231;50.866;7.944;2022-08-03T00:45:31;16.10;99.90
16247;DHT22;8231;50.866;7.944;2022-08-03T00:48:00;16.00;99.90
16247;DHT22;8231;50.866;7.944;2022-08-03T00:50:33;16.00;99.90
16247;DHT22;8231;50.866;7.944;2022-08-03T00:53:04;16.00;99.90
16247;DHT22;8231;50.866;7.944;2022-08-03T00:55:33;15.90;99.90
16247;DHT22;8231;50.866;7.944;2022-08-03T00:58:04;15.90;99.90
16247;DHT22;8231;50.866;7.944;2022-08-03T01:00:34;15.90;99.90
16247;DHT22;8231;50.866;7.944;2022-08-03T01:03:05;15.80;99.90
16247;DHT22;8231;50.866;7.944;2022-08-03T01:05:39;15.80;99.90
16247;DHT22;8231;50.866;7.944;2022-08-03T01:08:17;15.80;99.90
16247;DHT22;8231;50.866;7.944;2022-08-03T01:10:56;15.80;99.90
16247;DHT22;8231;50.866;7.944;2022-08-03T01:13:35;15.80;99.90
16247;DHT22;8231;50.866;7.944;2022-08-03T01:16:28;15.60;99.90
16247;DHT22;8231;50.866;7.944;2022-08-03T01:19:15;15.60;99.90
16247;DHT22;8231;50.866;7.944;2022-08-03T01:21:59;15.60;99.90
16247;DHT22;8231;50.866;7.944;2022-08-03T01:24:36;15.50;99.90
16247;DHT22;8231;50.866;7.944;2022-08-03T01:27:14;15.50;99.90
16247;DHT22;8231;50.866;7.944;2022-08-03T01:30:03;15.50;99.90
16247;DHT22;8231;50.866;7.944;2022-08-03T01:32:40;15.50;99.90
16247;DHT22;8231;50.866;7.944;2022-08-03T01:35:33;15.40;99.90
16247;DHT22;8231;50.866;7.944;2022-08-03T01:38:10;15.40;99.90
16247;DHT22;8231;50.866;7.944;2022-08-03T01:40:40;15.40;99.90
16247;DHT22;8231;50.866;7.944;2022-08-03T01:43:14;15.40;99.90
16247;DHT22;8231;50.866;7.944;2022-08-03T01:46:05;15.40;99.90
16247;DHT22;8231;50.866;7.944;2022-08-03T01:48:35;15.30;99.90
16247;DHT22;8231;50.866;7.944;2022-08-03T01:51:05;15.30;99.90
16247;DHT22;8231;50.866;7.944;2022-08-03T01:53:35;15.20;99.90
16247;DHT22;8231;50.866;7.944;2022-08-03T01:56:05;15.20;99.90
16247;DHT22;8231;50.866;7.944;2022-08-03T01:58:34;15.20;99.90
16247;DHT22;8231;50.866;7.944;2022-08-03T02:01:05;15.10;99.90
16247;DHT22;8231;50.866;7.944;2022-08-03T02:03:36;15.10;99.90
16247;DHT22;8231;50.866;7.944;2022-08-03T02:06:26;15.10;99.90
16247;DHT22;8231;50.866;7.944;2022-08-03T02:09:16;15.10;99.90
16247;DHT22;8231;50.866;7.944;2022-08-03T02:11:47;15.10;99.90
16247;DHT22;8231;50.866;7.944;2022-08-03T02:14:16;15.00;99.90
16247;DHT22;8231;50.866;7.944;2022-08-03T02:16:48;15.10;99.90
16247;DHT22;8231;50.866;7.944;2022-08-03T02:19:17;15.00;99.90
16247;DHT22;8231;50.866;7.944;2022-08-03T02:21:46;14.90;99.90
16247;DHT22;8231;50.866;7.944;2022-08-03T02:24:27;15.00;99.90
16247;DHT22;8231;50.866;7.944;2022-08-03T02:26:56;14.90;99.90
16247;DHT22;8231;50.866;7.944;2022-08-03T02:29:29;14.90;99.90
16247;DHT22;8231;50.866;7.944;2022-08-03T02:32:13;14.90;99.90
16247;DHT22;8231;50.866;7.944;2022-08-03T02:34:45;14.90;99.90
16247;DHT22;8231;50.866;7.944;2022-08-03T02:37:16;14.90;99.90
16247;DHT22;8231;50.866;7.944;2022-08-03T02:39:46;14.80;99.90
16247;DHT22;8231;50.866;7.944;2022-08-03T02:42:15;14.80;99.90
16247;DHT22;8231;50.866;7.944;2022-08-03T02:44:49;14.80;99.90
16247;DHT22;8231;50.866;7.944;2022-08-03T02:47:20;14.80;99.90
16247;DHT22;8231;50.866;7.944;2022-08-03T02:49:48;14.80;99.90
16247;DHT22;8231;50.866;7.944;2022-08-03T02:52:20;14.80;99.90
16247;DHT22;8231;50.866;7.944;2022-08-03T02:57:20;14.80;99.90
16247;DHT22;8231;50.866;7.944;2022-08-03T02:59:51;14.70;99.90
16247;DHT22;8231;50.866;7.944;2022-08-03T03:02:22;14.70;99.90
16247;DHT22;8231;50.866;7.944;2022-08-03T03:04:51;14.70;99.90
16247;DHT22;8231;50.866;7.944;2022-08-03T03:07:40;14.60;99.90
16247;DHT22;8231;50.866;7.944;2022-08-03T03:10:19;14.60;99.90
16247;DHT22;8231;50.866;7.944;2022-08-03T03:12:49;14.60;99.90
16247;DHT22;8231;50.866;7.944;2022-08-03T03:15:18;14.60;99.90
16247;DHT22;8231;50.866;7.944;2022-08-03T03:17:48;14.60;99.90
16247;DHT22;8231;50.866;7.944;2022-08-03T03:20:17;14.60;99.90
16247;DHT22;8231;50.866;7.944;2022-08-03T03:22:57;14.60;99.90
16247;DHT22;8231;50.866;7.944;2022-08-03T03:25:27;14.50;99.90
16247;DHT22;8231;50.866;7.944;2022-08-03T03:27:56;14.60;99.90
16247;DHT22;8231;50.866;7.944;2022-08-03T03:30:25;14.50;99.90
16247;DHT22;8231;50.866;7.944;2022-08-03T03:32:56;14.50;99.90
16247;DHT22;8231;50.866;7.944;2022-08-03T03:35:26;14.50;99.90
16247;DHT22;8231;50.866;7.944;2022-08-03T03:37:54;14.50;99.90
16247;DHT22;8231;50.866;7.944;2022-08-03T03:40:23;14.40;99.90
16247;DHT22;8231;50.866;7.944;2022-08-03T03:42:51;14.40;99.90
16247;DHT22;8231;50.866;7.944;2022-08-03T03:45:20;14.40;99.90
16247;DHT22;8231;50.866;7.944;2022-08-03T03:47:49;14.40;99.90
16247;DHT22;8231;50.866;7.944;2022-08-03T03:50:19;14.40;99.90
16247;DHT22;8231;50.866;7.944;2022-08-03T03:52:49;14.30;99.90
16247;DHT22;8231;50.866;7.944;2022-08-03T03:55:17;14.30;99.90
16247;DHT22;8231;50.866;7.944;2022-08-03T03:57:46;14.30;99.90
16247;DHT22;8231;50.866;7.944;2022-08-03T04:00:16;14.30;99.90
16247;DHT22;8231;50.866;7.944;2022-08-03T04:02:44;14.30;99.90
16247;DHT22;8231;50.866;7.944;2022-08-03T04:05:13;14.40;99.90
16247;DHT22;8231;50.866;7.944;2022-08-03T04:08:04;14.30;99.90
16247;DHT22;8231;50.866;7.944;2022-08-03T04:13:41;14.30;99.90
16247;DHT22;8231;50.866;7.944;2022-08-03T04:16:13;14.40;99.90
16247;DHT22;8231;50.866;7.944;2022-08-03T04:18:45;14.30;99.90
16247;DHT22;8231;50.866;7.944;2022-08-03T04:21:16;14.30;99.90
16247;DHT22;8231;50.866;7.944;2022-08-03T04:23:50;14.40;99.90
16247;DHT22;8231;50.866;7.944;2022-08-03T04:26:21;14.40;99.90
16247;DHT22;8231;50.866;7.944;2022-08-03T04:28:50;14.40;99.90
16247;DHT22;8231;50.866;7.944;2022-08-03T04:31:21;14.50;99.90
16247;DHT22;8231;50.866;7.944;2022-08-03T04:33:50;14.50;99.90
16247;DHT22;8231;50.866;7.944;2022-08-03T04:36:21;14.60;99.90
16247;DHT22;8231;50.866;7.944;2022-08-03T04:39:00;14.60;99.90
16247;DHT22;8231;50.866;7.944;2022-08-03T04:41:30;14.60;99.90
16247;DHT22;8231;50.866;7.944;2022-08-03T04:44:20;14.80;99.90
16247;DHT22;8231;50.866;7.944;2022-08-03T04:46:55;14.80;99.90
16247;DHT22;8231;50.866;7.944;2022-08-03T04:49:25;15.00;99.90
16247;DHT22;8231;50.866;7.944;2022-08-03T04:51:54;14.90;99.90
16247;DHT22;8231;50.866;7.944;2022-08-03T04:54:23;15.00;99.90
16247;DHT22;8231;50.866;7.944;2022-08-03T04:56:51;15.10;99.90
16247;DHT22;8231;50.866;7.944;2022-08-03T04:59:19;15.10;99.90
16247;DHT22;8231;50.866;7.944;2022-08-03T05:01:48;15.20;99.90
16247;DHT22;8231;50.866;7.944;2022-08-03T05:04:16;15.30;99.90
16247;DHT22;8231;50.866;7.944;2022-08-03T05:06:45;15.50;99.90
16247;DHT22;8231;50.866;7.944;2022-08-03T05:09:22;15.60;99.90
16247;DHT22;8231;50.866;7.944;2022-08-03T05:12:10;15.80;99.90
16247;DHT22;8231;50.866;7.944;2022-08-03T05:14:38;16.20;99.90
16247;DHT22;8231;50.866;7.944;2022-08-03T05:17:07;16.40;99.90
16247;DHT22;8231;50.866;7.944;2022-08-03T05:19:35;16.80;99.90
16247;DHT22;8231;50.866;7.944;2022-08-03T05:22:03;17.30;99.90
16247;DHT22;8231;50.866;7.944;2022-08-03T05:24:33;17.70;99.90
16247;DHT22;8231;50.866;7.944;2022-08-03T05:27:01;18.20;99.90
16247;DHT22;8231;50.866;7.944;2022-08-03T05:29:29;18.60;99.90
16247;DHT22;8231;50.866;7.944;2022-08-03T05:31:57;19.10;99.90
16247;DHT22;8231;50.866;7.944;2022-08-03T05:34:25;19.50;99.90
16247;DHT22;8231;50.866;7.944;2022-08-03T05:36:53;19.90;99.90
16247;DHT22;8231;50.866;7.944;2022-08-03T05:39:22;20.20;99.90
16247;DHT22;8231;50.866;7.944;2022-08-03T05:41:51;20.80;99.90
16247;DHT22;8231;50.866;7.944;2022-08-03T05:44:19;21.20;99.90
16247;DHT22;8231;50.866;7.944;2022-08-03T05:46:47;21.60;99.90
16247;DHT22;8231;50.866;7.944;2022-08-03T05:49:15;22.20;99.90
16247;DHT22;8231;50.866;7.944;2022-08-03T05:51:44;22.80;99.90
16247;DHT22;8231;50.866;7.944;2022-08-03T05:54:25;23.50;99.90
16247;DHT22;8231;50.866;7.944;2022-08-03T05:57:14;24.00;99.90
16247;DHT22;8231;50.866;7.944;2022-08-03T05:59:42;24.40;99.90
16247;DHT22;8231;50.866;7.944;2022-08-03T06:02:24;24.90;99.90
16247;DHT22;8231;50.866;7.944;2022-08-03T06:04:53;25.30;99.90
16247;DHT22;8231;50.866;7.944;2022-08-03T06:07:21;25.70;99.90
16247;DHT22;8231;50.866;7.944;2022-08-03T06:09:49;26.30;99.90
16247;DHT22;8231;50.866;7.944;2022-08-03T06:12:39;26.90;99.90
16247;DHT22;8231;50.866;7.944;2022-08-03T06:15:08;27.20;99.90
16247;DHT22;8231;50.866;7.944;2022-08-03T06:17:44;27.50;99.90
16247;DHT22;8231;50.866;7.944;2022-08-03T06:20:14;27.90;99.80
16247;DHT22;8231;50.866;7.944;2022-08-03T06:22:42;27.90;99.20
16247;DHT22;8231;50.866;7.944;2022-08-03T06:25:26;28.00;98.40
16247;DHT22;8231;50.866;7.944;2022-08-03T06:27:56;28.30;98.10
16247;DHT22;8231;50.866;7.944;2022-08-03T06:30:25;28.70;97.00
16247;DHT22;8231;50.866;7.944;2022-08-03T06:32:53;28.80;96.50
16247;DHT22;8231;50.866;7.944;2022-08-03T06:35:21;29.30;95.80
16247;DHT22;8231;50.866;7.944;2022-08-03T06:37:50;29.50;94.50
16247;DHT22;8231;50.866;7.944;2022-08-03T06:40:21;29.70;94.50
16247;DHT22;8231;50.866;7.944;2022-08-03T06:42:57;30.10;93.20
16247;DHT22;8231;50.866;7.944;2022-08-03T06:45:25;30.60;92.90
16247;DHT22;8231;50.866;7.944;2022-08-03T06:48:02;31.10;91.00
16247;DHT22;8231;50.866;7.944;2022-08-03T06:50:32;31.40;90.00
16247;DHT22;8231;50.866;7.944;2022-08-03T06:53:00;31.40;87.80
16247;DHT22;8231;50.866;7.944;2022-08-03T06:55:29;31.80;86.80
16247;DHT22;8231;50.866;7.944;2022-08-03T06:57:58;32.50;87.10
16247;DHT22;8231;50.866;7.944;2022-08-03T07:00:29;33.00;82.90
16247;DHT22;8231;50.866;7.944;2022-08-03T07:02:57;33.20;80.80
16247;DHT22;8231;50.866;7.944;2022-08-03T07:05:26;33.60;78.30
16247;DHT22;8231;50.866;7.944;2022-08-03T07:07:54;33.70;76.60
16247;DHT22;8231;50.866;7.944;2022-08-03T07:10:23;33.70;76.40
16247;DHT22;8231;50.866;7.944;2022-08-03T07:12:51;33.80;73.30
16247;DHT22;8231;50.866;7.944;2022-08-03T07:15:23;34.00;71.90
16247;DHT22;8231;50.866;7.944;2022-08-03T07:18:12;34.00;69.10
16247;DHT22;8231;50.866;7.944;2022-08-03T07:20:40;34.20;69.70
16247;DHT22;8231;50.866;7.944;2022-08-03T07:23:08;34.10;69.20
16247;DHT22;8231;50.866;7.944;2022-08-03T07:25:45;34.30;67.90
16247;DHT22;8231;50.866;7.944;2022-08-03T07:28:14;34.50;67.60
16247;DHT22;8231;50.866;7.944;2022-08-03T07:30:43;35.10;66.00
16247;DHT22;8231;50.866;7.944;2022-08-03T07:33:11;35.50;66.10
16247;DHT22;8231;50.866;7.944;2022-08-03T07:35:40;36.10;63.40
16247;DHT22;8231;50.866;7.944;2022-08-03T07:38:08;35.70;61.40
16247;DHT22;8231;50.866;7.944;2022-08-03T07:40:36;35.70;61.30
16247;DHT22;8231;50.866;7.944;2022-08-03T07:43:11;35.90;61.10
16247;DHT22;8231;50.866;7.944;2022-08-03T07:45:39;36.10;59.40
16247;DHT22;8231;50.866;7.944;2022-08-03T07:48:09;36.30;59.10
16247;DHT22;8231;50.866;7.944;2022-08-03T07:50:39;36.50;58.20
16247;DHT22;8231;50.866;7.944;2022-08-03T07:53:07;36.80;57.50
16247;DHT22;8231;50.866;7.944;2022-08-03T07:55:35;37.20;55.80
16247;DHT22;8231;50.866;7.944;2022-08-03T07:58:04;37.40;54.70
16247;DHT22;8231;50.866;7.944;2022-08-03T08:00:32;37.20;53.40
16247;DHT22;8231;50.866;7.944;2022-08-03T08:03:01;37.30;54.50
16247;DHT22;8231;50.866;7.944;2022-08-03T08:05:30;38.00;52.20
16247;DHT22;8231;50.866;7.944;2022-08-03T08:07:59;37.90;50.40
16247;DHT22;8231;50.866;7.944;2022-08-03T08:10:28;37.50;50.10
16247;DHT22;8231;50.866;7.944;2022-08-03T08:12:56;37.40;50.60
16247;DHT22;8231;50.866;7.944;2022-08-03T08:15:24;37.80;52.00
16247;DHT22;8231;50.866;7.944;2022-08-03T08:17:54;38.70;50.30
16247;DHT22;8231;50.866;7.944;2022-08-03T08:20:23;38.90;47.70
16247;DHT22;8231;50.866;7.944;2022-08-03T08:23:00;39.10;47.50
16247;DHT22;8231;50.866;7.944;2022-08-03T08:25:34;39.10;45.80
16247;DHT22;8231;50.866;7.944;2022-08-03T08:28:03;38.40;46.90
16247;DHT22;8231;50.866;7.944;2022-08-03T08:30:51;39.00;48.70
16247;DHT22;8231;50.866;7.944;2022-08-03T08:33:19;39.60;45.00
16247;DHT22;8231;50.866;7.944;2022-08-03T08:35:51;39.70;42.90
16247;DHT22;8231;50.866;7.944;2022-08-03T08:38:21;39.60;43.00
16247;DHT22;8231;50.866;7.944;2022-08-03T08:40:50;39.10;43.10
16247;DHT22;8231;50.866;7.944;2022-08-03T08:43:18;39.40;45.70
16247;DHT22;8231;50.866;7.944;2022-08-03T08:45:48;39.80;43.20
16247;DHT22;8231;50.866;7.944;2022-08-03T08:48:21;39.80;42.60
16247;DHT22;8231;50.866;7.944;2022-08-03T08:50:52;39.80;42.30
16247;DHT22;8231;50.866;7.944;2022-08-03T08:53:22;39.30;42.90
16247;DHT22;8231;50.866;7.944;2022-08-03T08:55:55;39.20;43.10
16247;DHT22;8231;50.866;7.944;2022-08-03T08:58:28;39.20;43.60
16247;DHT22;8231;50.866;7.944;2022-08-03T09:00:57;39.60;43.50
16247;DHT22;8231;50.866;7.944;2022-08-03T09:03:26;39.80;43.00
16247;DHT22;8231;50.866;7.944;2022-08-03T09:05:58;39.80;42.80
16247;DHT22;8231;50.866;7.944;2022-08-03T09:08:30;39.90;42.10
16247;DHT22;8231;50.866;7.944;2022-08-03T09:10:58;39.60;41.90
16247;DHT22;8231;50.866;7.944;2022-08-03T09:13:26;39.60;41.90
16247;DHT22;8231;50.866;7.944;2022-08-03T09:16:10;39.40;41.30
16247;DHT22;8231;50.866;7.944;2022-08-03T09:18:39;39.30;41.80
16247;DHT22;8231;50.866;7.944;2022-08-03T09:21:21;39.00;41.70
16247;DHT22;8231;50.866;7.944;2022-08-03T09:24:01;39.10;44.10
16247;DHT22;8231;50.866;7.944;2022-08-03T09:26:34;38.60;43.00
16247;DHT22;8231;50.866;7.944;2022-08-03T09:29:04;38.70;42.70
16247;DHT22;8231;50.866;7.944;2022-08-03T09:31:41;38.90;42.40
16247;DHT22;8231;50.866;7.944;2022-08-03T09:34:12;39.00;41.50
16247;DHT22;8231;50.866;7.944;2022-08-03T09:36:42;38.80;40.30
16247;DHT22;8231;50.866;7.944;2022-08-03T09:39:13;38.90;42.10
16247;DHT22;8231;50.866;7.944;2022-08-03T09:41:43;38.80;42.20
16247;DHT22;8231;50.866;7.944;2022-08-03T09:44:12;38.80;42.10
16247;DHT22;8231;50.866;7.944;2022-08-03T09:46:53;38.60;41.10
16247;DHT22;8231;50.866;7.944;2022-08-03T09:49:23;38.10;41.70
16247;DHT22;8231;50.866;7.944;2022-08-03T09:51:52;37.80;43.60
16247;DHT22;8231;50.866;7.944;2022-08-03T09:54:42;37.80;43.50
16247;DHT22;8231;50.866;7.944;2022-08-03T09:57:21;37.40;44.70
16247;DHT22;8231;50.866;7.944;2022-08-03T09:59:50;37.60;45.70
16247;DHT22;8231;50.866;7.944;2022-08-03T10:02:38;37.30;42.50
16247;DHT22;8231;50.866;7.944;2022-08-03T10:05:08;37.40;45.20
16247;DHT22;8231;50.866;7.944;2022-08-03T10:07:46;37.50;44.80
16247;DHT22;8231;50.866;7.944;2022-08-03T10:10:17;37.40;45.10
16247;DHT22;8231;50.866;7.944;2022-08-03T10:12:58;37.30;44.90
16247;DHT22;8231;50.866;7.944;2022-08-03T10:15:27;37.30;45.00
16247;DHT22;8231;50.866;7.944;2022-08-03T10:18:16;37.30;45.70
16247;DHT22;8231;50.866;7.944;2022-08-03T10:20:48;37.00;46.00
16247;DHT22;8231;50.866;7.944;2022-08-03T10:23:17;36.90;45.00
16247;DHT22;8231;50.866;7.944;2022-08-03T10:25:52;36.90;44.90
16247;DHT22;8231;50.866;7.944;2022-08-03T10:28:21;36.50;47.10
16247;DHT22;8231;50.866;7.944;2022-08-03T10:30:52;36.70;46.00
16247;DHT22;8231;50.866;7.944;2022-08-03T10:33:25;36.70;44.30
16247;DHT22;8231;50.866;7.944;2022-08-03T10:36:15;36.70;46.90
16247;DHT22;8231;50.866;7.944;2022-08-03T10:38:47;37.00;45.10
16247;DHT22;8231;50.866;7.944;2022-08-03T10:41:22;36.30;44.60
16247;DHT22;8231;50.866;7.944;2022-08-03T10:43:56;36.10;46.90
16247;DHT22;8231;50.866;7.944;2022-08-03T10:46:25;36.40;46.30
16247;DHT22;8231;50.866;7.944;2022-08-03T10:48:55;36.50;44.70
16247;DHT22;8231;50.866;7.944;2022-08-03T10:51:24;36.70;46.10
16247;DHT22;8231;50.866;7.944;2022-08-03T10:53:58;36.80;47.00
16247;DHT22;8231;50.866;7.944;2022-08-03T10:56:40;36.20;44.70
16247;DHT22;8231;50.866;7.944;2022-08-03T10:59:58;36.30;44.40
16247;DHT22;8231;50.866;7.944;2022-08-03T11:03:00;36.50;46.80
16247;DHT22;8231;50.866;7.944;2022-08-03T11:05:31;36.80;44.40
16247;DHT22;8231;50.866;7.944;2022-08-03T11:08:21;37.10;46.20
16247;DHT22;8231;50.866;7.944;2022-08-03T11:10:52;37.20;45.90
16247;DHT22;8231;50.866;7.944;2022-08-03T11:13:23;37.20;44.90
16247;DHT22;8231;50.866;7.944;2022-08-03T11:15:54;37.10;42.80
16247;DHT22;8231;50.866;7.944;2022-08-03T11:18:29;36.40;43.90
16247;DHT22;8231;50.866;7.944;2022-08-03T11:20:58;36.00;46.20
16247;DHT22;8231;50.866;7.944;2022-08-03T11:23:43;36.20;46.90
16247;DHT22;8231;50.866;7.944;2022-08-03T11:26:31;36.30;46.00
16247;DHT22;8231;50.866;7.944;2022-08-03T11:29:29;36.50;45.80
16247;DHT22;8231;50.866;7.944;2022-08-03T11:31:57;36.50;42.60
16247;DHT22;8231;50.866;7.944;2022-08-03T11:34:25;36.20;45.00
16247;DHT22;8231;50.866;7.944;2022-08-03T11:37:19;36.50;45.00
16247;DHT22;8231;50.866;7.944;2022-08-03T11:39:55;36.70;43.90
16247;DHT22;8231;50.866;7.944;2022-08-03T11:42:40;36.80;45.60
16247;DHT22;8231;50.866;7.944;2022-08-03T11:45:11;37.00;43.80
16247;DHT22;8231;50.866;7.944;2022-08-03T11:47:40;37.10;43.50
16247;DHT22;8231;50.866;7.944;2022-08-03T11:50:17;37.10;43.00
16247;DHT22;8231;50.866;7.944;2022-08-03T11:52:47;37.30;43.10
16247;DHT22;8231;50.866;7.944;2022-08-03T11:55:18;37.30;42.90
16247;DHT22;8231;50.866;7.944;2022-08-03T11:57:48;37.30;45.00
16247;DHT22;8231;50.866;7.944;2022-08-03T12:00:38;37.50;43.80
16247;DHT22;8231;50.866;7.944;2022-08-03T12:03:08;37.40;44.10
16247;DHT22;8231;50.866;7.944;2022-08-03T12:05:41;37.70;43.50
16247;DHT22;8231;50.866;7.944;2022-08-03T12:08:29;38.00;42.10
16247;DHT22;8231;50.866;7.944;2022-08-03T12:10:59;37.60;43.40
16247;DHT22;8231;50.866;7.944;2022-08-03T12:13:36;37.30;42.50
16247;DHT22;8231;50.866;7.944;2022-08-03T12:16:26;36.90;44.10
16247;DHT22;8231;50.866;7.944;2022-08-03T12:18:56;37.10;44.00
16247;DHT22;8231;50.866;7.944;2022-08-03T12:21:24;37.70;42.80
16247;DHT22;8231;50.866;7.944;2022-08-03T12:23:56;37.90;41.90
16247;DHT22;8231;50.866;7.944;2022-08-03T12:26:26;38.80;41.60
16247;DHT22;8231;50.866;7.944;2022-08-03T12:28:54;39.40;40.20
16247;DHT22;8231;50.866;7.944;2022-08-03T12:31:23;39.60;40.00
16247;DHT22;8231;50.866;7.944;2022-08-03T12:33:58;40.00;40.30
16247;DHT22;8231;50.866;7.944;2022-08-03T12:36:29;40.40;39.10
16247;DHT22;8231;50.866;7.944;2022-08-03T12:39:00;39.70;39.10
16247;DHT22;8231;50.866;7.944;2022-08-03T12:41:30;38.90;41.70
16247;DHT22;8231;50.866;7.944;2022-08-03T12:44:00;38.50;42.50
16247;DHT22;8231;50.866;7.944;2022-08-03T12:46:32;38.30;40.80
16247;DHT22;8231;50.866;7.944;2022-08-03T12:49:04;37.50;41.10
16247;DHT22;8231;50.866;7.944;2022-08-03T12:51:35;37.30;43.70
16247;DHT22;8231;50.866;7.944;2022-08-03T12:54:04;37.70;43.40
16247;DHT22;8231;50.866;7.944;2022-08-03T12:56:32;37.90;42.60
16247;DHT22;8231;50.866;7.944;2022-08-03T12:59:25;37.50;41.30
16247;DHT22;8231;50.866;7.944;2022-08-03T13:02:02;37.40;44.20
16247;DHT22;8231;50.866;7.944;2022-08-03T13:04:35;37.40;43.30
16247;DHT22;8231;50.866;7.944;2022-08-03T13:07:05;37.20;42.40
16247;DHT22;8231;50.866;7.944;2022-08-03T13:09:42;37.10;43.90
16247;DHT22;8231;50.866;7.944;2022-08-03T13:12:11;37.10;43.70
16247;DHT22;8231;50.866;7.944;2022-08-03T13:14:41;37.00;42.80
16247;DHT22;8231;50.866;7.944;2022-08-03T13:17:10;36.90;43.50
16247;DHT22;8231;50.866;7.944;2022-08-03T13:19:39;36.90;44.30
16247;DHT22;8231;50.866;7.944;2022-08-03T13:22:11;36.70;44.40
16247;DHT22;8231;50.866;7.944;2022-08-03T13:24:41;36.40;45.30
16247;DHT22;8231;50.866;7.944;2022-08-03T13:27:10;36.40;44.70
16247;DHT22;8231;50.866;7.944;2022-08-03T13:30:00;36.50;45.50
16247;DHT22;8231;50.866;7.944;2022-08-03T13:32:29;36.80;44.50
16247;DHT22;8231;50.866;7.944;2022-08-03T13:34:58;36.60;43.70
16247;DHT22;8231;50.866;7.944;2022-08-03T13:37:26;36.70;45.00
16247;DHT22;8231;50.866;7.944;2022-08-03T13:39:55;37.00;44.60
16247;DHT22;8231;50.866;7.944;2022-08-03T13:42:30;36.70;42.70
16247;DHT22;8231;50.866;7.944;2022-08-03T13:45:01;36.80;43.20
16247;DHT22;8231;50.866;7.944;2022-08-03T13:47:30;37.00;43.70
16247;DHT22;8231;50.866;7.944;2022-08-03T13:49:58;37.00;43.50
16247;DHT22;8231;50.866;7.944;2022-08-03T13:52:31;37.00;42.50
16247;DHT22;8231;50.866;7.944;2022-08-03T13:54:59;36.90;41.80
16247;DHT22;8231;50.866;7.944;2022-08-03T13:57:28;36.60;41.70
16247;DHT22;8231;50.866;7.944;2022-08-03T14:00:18;36.60;43.50
16247;DHT22;8231;50.866;7.944;2022-08-03T14:02:57;36.50;42.50
16247;DHT22;8231;50.866;7.944;2022-08-03T14:05:40;36.50;43.40
16247;DHT22;8231;50.866;7.944;2022-08-03T14:08:09;36.60;42.40
16247;DHT22;8231;50.866;7.944;2022-08-03T14:10:38;36.50;42.40
16247;DHT22;8231;50.866;7.944;2022-08-03T14:13:07;36.60;43.50
16247;DHT22;8231;50.866;7.944;2022-08-03T14:15:37;36.70;41.70
16247;DHT22;8231;50.866;7.944;2022-08-03T14:18:06;36.80;42.80
16247;DHT22;8231;50.866;7.944;2022-08-03T14:20:42;36.80;42.90
16247;DHT22;8231;50.866;7.944;2022-08-03T14:23:17;36.60;44.30
16247;DHT22;8231;50.866;7.944;2022-08-03T14:25:46;36.40;43.80
16247;DHT22;8231;50.866;7.944;2022-08-03T14:28:19;36.40;43.70
16247;DHT22;8231;50.866;7.944;2022-08-03T14:30:51;36.30;44.30
16247;DHT22;8231;50.866;7.944;2022-08-03T14:33:20;36.20;44.30
16247;DHT22;8231;50.866;7.944;2022-08-03T14:35:49;35.90;44.60
16247;DHT22;8231;50.866;7.944;2022-08-03T14:38:17;35.70;45.50
16247;DHT22;8231;50.866;7.944;2022-08-03T14:40:45;35.50;46.80
16247;DHT22;8231;50.866;7.944;2022-08-03T14:43:13;35.30;47.00
16247;DHT22;8231;50.866;7.944;2022-08-03T14:45:44;35.40;45.80
16247;DHT22;8231;50.866;7.944;2022-08-03T14:48:14;35.10;46.00
16247;DHT22;8231;50.866;7.944;2022-08-03T14:51:03;34.90;48.00
16247;DHT22;8231;50.866;7.944;2022-08-03T14:53:31;35.00;48.30
16247;DHT22;8231;50.866;7.944;2022-08-03T14:55:59;35.20;46.40
16247;DHT22;8231;50.866;7.944;2022-08-03T14:58:33;35.20;46.00
16247;DHT22;8231;50.866;7.944;2022-08-03T15:01:01;35.20;45.10
16247;DHT22;8231;50.866;7.944;2022-08-03T15:03:51;35.30;45.60
16247;DHT22;8231;50.866;7.944;2022-08-03T15:06:19;35.30;44.10
16247;DHT22;8231;50.866;7.944;2022-08-03T15:08:47;35.30;44.60
16247;DHT22;8231;50.866;7.944;2022-08-03T15:11:36;35.30;44.30
16247;DHT22;8231;50.866;7.944;2022-08-03T15:14:04;35.20;44.80
16247;DHT22;8231;50.866;7.944;2022-08-03T15:16:35;35.10;46.20
16247;DHT22;8231;50.866;7.944;2022-08-03T15:19:05;35.00;46.60
16247;DHT22;8231;50.866;7.944;2022-08-03T15:21:53;34.90;47.10
16247;DHT22;8231;50.866;7.944;2022-08-03T15:24:21;34.90;46.00
16247;DHT22;8231;50.866;7.944;2022-08-03T15:26:50;35.10;45.80
16247;DHT22;8231;50.866;7.944;2022-08-03T15:29:18;35.20;45.40
16247;DHT22;8231;50.866;7.944;2022-08-03T15:32:07;35.30;45.10
16247;DHT22;8231;50.866;7.944;2022-08-03T15:34:37;35.30;44.20
16247;DHT22;8231;50.866;7.944;2022-08-03T15:37:05;35.40;43.60
16247;DHT22;8231;50.866;7.944;2022-08-03T15:39:42;35.30;44.20
16247;DHT22;8231;50.866;7.944;2022-08-03T15:42:26;35.40;44.70
16247;DHT22;8231;50.866;7.944;2022-08-03T15:44:54;35.30;44.40
16247;DHT22;8231;50.866;7.944;2022-08-03T15:47:23;35.10;44.20
16247;DHT22;8231;50.866;7.944;2022-08-03T15:49:52;35.00;44.50
16247;DHT22;8231;50.866;7.944;2022-08-03T15:52:20;34.90;45.70
16247;DHT22;8231;50.866;7.944;2022-08-03T15:54:48;35.10;44.60
16247;DHT22;8231;50.866;7.944;2022-08-03T15:57:17;35.00;45.60
16247;DHT22;8231;50.866;7.944;2022-08-03T15:59:45;34.90;47.00
16247;DHT22;8231;50.866;7.944;2022-08-03T16:02:14;34.90;45.70
16247;DHT22;8231;50.866;7.944;2022-08-03T16:04:42;34.90;45.90
16247;DHT22;8231;50.866;7.944;2022-08-03T16:07:11;35.00;45.50
16247;DHT22;8231;50.866;7.944;2022-08-03T16:09:41;35.00;45.80
16247;DHT22;8231;50.866;7.944;2022-08-03T16:12:10;35.00;46.00
16247;DHT22;8231;50.866;7.944;2022-08-03T16:14:42;35.20;45.70
16247;DHT22;8231;50.866;7.944;2022-08-03T16:17:19;35.00;45.60
16247;DHT22;8231;50.866;7.944;2022-08-03T16:19:48;34.90;45.70
16247;DHT22;8231;50.866;7.944;2022-08-03T16:22:21;34.60;45.60
16247;DHT22;8231;50.866;7.944;2022-08-03T16:24:50;34.30;46.50